sensor_id;sensor_type;location;lat;lon;timestamp;P1;durP1;ratioP1;P2;durP2;ratioP2
14203;SDS011;7185;51.854;6.622;2023-07-29T10:42:15;4.68;;;2.10;;
14203;SDS011;7185;51.854;6.622;2023-07-29T10:45:21;3.92;;;2.10;;
14203;SDS011;7185;51.854;6.622;2023-07-29T10:48:39;3.63;;;2.05;;
14203;SDS011;7185;51.854;6.622;2023-07-29T10:51:23;4.38;;;2.03;;
14203;SDS011;7185;51.854;6.622;2023-07-29T10:54:01;3.97;;;1.80;;
14203;SDS011;7185;51.854;6.622;2023-07-29T10:56:51;5.22;;;2.15;;
14203;SDS011;7185;51.854;6.622;2023-07-29T10:59:34;3.50;;;2.33;;
14203;SDS011;7185;51.854;6.622;2023-07-29T11:02:17;3.38;;;1.92;;
14203;SDS011;7185;51.854;6.622;2023-07-29T11:04:53;3.17;;;2.08;;
14203;SDS011;7185;51.854;6.622;2023-07-29T11:07:35;2.90;;;1.70;;
14203;SDS011;7185;51.854;6.622;2023-07-29T11:11:00;3.03;;;1.80;;
14203;SDS011;7185;51.854;6.622;2023-07-29T11:13:34;3.50;;;1.67;;
14203;SDS011;7185;51.854;6.622;2023-07-29T11:16:23;2.85;;;1.35;;
14203;SDS011;7185;51.854;6.622;2023-07-29T11:18:56;2.50;;;1.48;;
14203;SDS011;7185;51.854;6.622;2023-07-29T11:21:30;2.58;;;1.50;;
14203;SDS011;7185;51.854;6.622;2023-07-29T11:24:26;4.38;;;1.38;;
14203;SDS011;7185;51.854;6.622;2023-07-29T11:27:00;4.45;;;1.45;;
14203;SDS011;7185;51.854;6.622;2023-07-29T11:29:34;3.83;;;1.55;;
14203;SDS011;7185;51.854;6.622;2023-07-29T11:32:11;3.10;;;1.70;;
14203;SDS011;7185;51.854;6.622;2023-07-29T11:34:44;2.05;;;1.20;;
14203;SDS011;7185;51.854;6.622;2023-07-29T11:37:17;2.25;;;1.23;;
14203;SDS011;7185;51.854;6.622;2023-07-29T11:40:12;3.38;;;1.40;;
14203;SDS011;7185;51.854;6.622;2023-07-29T11:42:51;4.72;;;1.50;;
14203;SDS011;7185;51.854;6.622;2023-07-29T11:45:26;2.28;;;1.20;;
14203;SDS011;7185;51.854;6.622;2023-07-29T11:47:59;3.20;;;1.42;;
14203;SDS011;7185;51.854;6.622;2023-07-29T11:50:38;3.13;;;1.50;;
14203;SDS011;7185;51.854;6.622;2023-07-29T11:53:10;2.08;;;1.33;;
14203;SDS011;7185;51.854;6.622;2023-07-29T11:55:44;4.25;;;1.50;;
14203;SDS011;7185;51.854;6.622;2023-07-29T11:58:21;5.10;;;1.42;;
14203;SDS011;7185;51.854;6.622;2023-07-29T12:00:53;5.00;;;1.50;;
14203;SDS011;7185;51.854;6.622;2023-07-29T12:03:26;3.53;;;1.45;;
14203;SDS011;7185;51.854;6.622;2023-07-29T12:06:11;3.90;;;1.50;;
14203;SDS011;7185;51.854;6.622;2023-07-29T12:08:57;2.72;;;1.23;;
14203;SDS011;7185;51.854;6.622;2023-07-29T12:11:35;3.95;;;1.70;;
14203;SDS011;7185;51.854;6.622;2023-07-29T12:14:10;2.53;;;1.30;;
14203;SDS011;7185;51.854;6.622;2023-07-29T12:16:42;4.38;;;1.60;;
14203;SDS011;7185;51.854;6.622;2023-07-29T12:19:16;4.43;;;1.70;;
14203;SDS011;7185;51.854;6.622;2023-07-29T12:21:48;2.67;;;1.42;;
14203;SDS011;7185;51.854;6.622;2023-07-29T12:24:22;3.28;;;1.60;;
14203;SDS011;7185;51.854;6.622;2023-07-29T12:26:53;3.70;;;1.50;;
14203;SDS011;7185;51.854;6.622;2023-07-29T12:29:25;3.17;;;1.40;;
14203;SDS011;7185;51.854;6.622;2023-07-29T12:31:58;3.03;;;1.70;;
14203;SDS011;7185;51.854;6.622;2023-07-29T12:37:08;2.50;;;1.40;;
14203;SDS011;7185;51.854;6.622;2023-07-29T12:39:49;3.25;;;1.50;;
14203;SDS011;7185;51.854;6.622;2023-07-29T12:42:21;2.60;;;1.55;;
14203;SDS011;7185;51.854;6.622;2023-07-29T12:44:53;2.40;;;1.52;;
14203;SDS011;7185;51.854;6.622;2023-07-29T12:47:25;3.33;;;1.50;;
14203;SDS011;7185;51.854;6.622;2023-07-29T12:49:58;3.67;;;1.50;;
14203;SDS011;7185;51.854;6.622;2023-07-29T12:52:29;4.07;;;1.60;;
14203;SDS011;7185;51.854;6.622;2023-07-29T12:55:01;3.70;;;1.70;;
14203;SDS011;7185;51.854;6.622;2023-07-29T12:57:34;2.17;;;1.40;;
14203;SDS011;7185;51.854;6.622;2023-07-29T13:00:07;3.00;;;1.65;;
14203;SDS011;7185;51.854;6.622;2023-07-29T13:02:40;3.65;;;1.63;;
14203;SDS011;7185;51.854;6.622;2023-07-29T13:05:13;3.42;;;1.42;;
14203;SDS011;7185;51.854;6.622;2023-07-29T13:07:45;3.47;;;1.70;;
14203;SDS011;7185;51.854;6.622;2023-07-29T13:10:17;6.40;;;1.90;;
14203;SDS011;7185;51.854;6.622;2023-07-29T13:15:33;5.20;;;1.40;;
14203;SDS011;7185;51.854;6.622;2023-07-29T13:18:51;4.53;;;1.27;;
14203;SDS011;7185;51.854;6.622;2023-07-29T13:24:41;5.05;;;1.48;;
14203;SDS011;7185;51.854;6.622;2023-07-29T13:27:23;1.90;;;1.13;;
14203;SDS011;7185;51.854;6.622;2023-07-29T13:29:56;2.55;;;1.13;;
14203;SDS011;7185;51.854;6.622;2023-07-29T13:32:28;4.65;;;1.17;;
14203;SDS011;7185;51.854;6.622;2023-07-29T13:35:00;2.72;;;1.20;;
14203;SDS011;7185;51.854;6.622;2023-07-29T13:37:35;3.65;;;1.50;;
14203;SDS011;7185;51.854;6.622;2023-07-29T13:40:20;3.30;;;1.38;;
14203;SDS011;7185;51.854;6.622;2023-07-29T13:42:54;2.35;;;1.50;;
14203;SDS011;7185;51.854;6.622;2023-07-29T13:45:29;3.65;;;1.40;;
14203;SDS011;7185;51.854;6.622;2023-07-29T13:48:01;6.53;;;2.20;;
14203;SDS011;7185;51.854;6.622;2023-07-29T13:50:33;4.93;;;2.13;;
14203;SDS011;7185;51.854;6.622;2023-07-29T13:53:14;6.13;;;1.90;;
14203;SDS011;7185;51.854;6.622;2023-07-29T13:55:49;3.72;;;1.98;;
14203;SDS011;7185;51.854;6.622;2023-07-29T13:58:21;4.25;;;1.88;;
14203;SDS011;7185;51.854;6.622;2023-07-29T14:01:04;4.20;;;2.22;;
14203;SDS011;7185;51.854;6.622;2023-07-29T14:03:36;5.03;;;2.33;;
14203;SDS011;7185;51.854;6.622;2023-07-29T14:06:10;3.53;;;1.90;;
14203;SDS011;7185;51.854;6.622;2023-07-29T14:08:50;5.38;;;2.42;;
14203;SDS011;7185;51.854;6.622;2023-07-29T14:11:42;6.47;;;2.53;;
14203;SDS011;7185;51.854;6.622;2023-07-29T14:14:23;3.40;;;2.22;;
14203;SDS011;7185;51.854;6.622;2023-07-29T14:16:55;3.00;;;2.30;;
14203;SDS011;7185;51.854;6.622;2023-07-29T14:19:46;4.00;;;2.22;;
14203;SDS011;7185;51.854;6.622;2023-07-29T14:22:18;2.78;;;1.92;;
14203;SDS011;7185;51.854;6.622;2023-07-29T14:24:51;2.50;;;1.85;;
14203;SDS011;7185;51.854;6.622;2023-07-29T14:27:38;2.58;;;1.60;;
14203;SDS011;7185;51.854;6.622;2023-07-29T14:30:37;4.07;;;1.70;;
14203;SDS011;7185;51.854;6.622;2023-07-29T14:33:14;2.95;;;1.83;;
14203;SDS011;7185;51.854;6.622;2023-07-29T14:35:51;3.42;;;1.67;;
14203;SDS011;7185;51.854;6.622;2023-07-29T14:38:23;2.65;;;1.60;;
14203;SDS011;7185;51.854;6.622;2023-07-29T14:41:02;4.07;;;1.70;;
14203;SDS011;7185;51.854;6.622;2023-07-29T14:43:34;3.28;;;1.77;;
14203;SDS011;7185;51.854;6.622;2023-07-29T14:46:06;4.07;;;1.70;;
14203;SDS011;7185;51.854;6.622;2023-07-29T14:48:38;7.53;;;2.00;;
14203;SDS011;7185;51.854;6.622;2023-07-29T14:51:10;2.75;;;1.75;;
14203;SDS011;7185;51.854;6.622;2023-07-29T14:53:42;3.42;;;1.85;;
14203;SDS011;7185;51.854;6.622;2023-07-29T14:56:16;3.20;;;1.92;;
14203;SDS011;7185;51.854;6.622;2023-07-29T14:58:48;5.10;;;1.70;;
14203;SDS011;7185;51.854;6.622;2023-07-29T15:01:20;4.05;;;1.95;;
14203;SDS011;7185;51.854;6.622;2023-07-29T15:03:52;5.00;;;2.20;;
14203;SDS011;7185;51.854;6.622;2023-07-29T15:06:24;2.55;;;1.60;;
14203;SDS011;7185;51.854;6.622;2023-07-29T15:08:56;3.58;;;1.88;;
14203;SDS011;7185;51.854;6.622;2023-07-29T15:11:30;2.70;;;1.60;;
14203;SDS011;7185;51.854;6.622;2023-07-29T15:14:03;3.40;;;2.08;;
14203;SDS011;7185;51.854;6.622;2023-07-29T15:16:34;4.45;;;2.00;;
14203;SDS011;7185;51.854;6.622;2023-07-29T15:19:07;3.47;;;1.92;;
14203;SDS011;7185;51.854;6.622;2023-07-29T15:21:39;2.55;;;1.80;;
14203;SDS011;7185;51.854;6.622;2023-07-29T15:24:11;3.53;;;1.83;;
14203;SDS011;7185;51.854;6.622;2023-07-29T15:26:49;4.00;;;2.13;;
14203;SDS011;7185;51.854;6.622;2023-07-29T15:29:20;2.45;;;1.48;;
14203;SDS011;7185;51.854;6.622;2023-07-29T15:31:52;3.15;;;1.73;;
14203;SDS011;7185;51.854;6.622;2023-07-29T15:34:24;5.50;;;2.13;;
14203;SDS011;7185;51.854;6.622;2023-07-29T15:36:56;4.97;;;1.60;;
14203;SDS011;7185;51.854;6.622;2023-07-29T15:39:42;2.72;;;1.50;;
14203;SDS011;7185;51.854;6.622;2023-07-29T15:42:19;3.22;;;1.45;;
14203;SDS011;7185;51.854;6.622;2023-07-29T15:44:51;2.58;;;1.65;;
14203;SDS011;7185;51.854;6.622;2023-07-29T15:47:25;3.10;;;2.00;;
14203;SDS011;7185;51.854;6.622;2023-07-29T15:49:57;5.68;;;2.10;;
14203;SDS011;7185;51.854;6.622;2023-07-29T15:52:29;3.45;;;1.83;;
14203;SDS011;7185;51.854;6.622;2023-07-29T15:55:07;3.35;;;1.73;;
14203;SDS011;7185;51.854;6.622;2023-07-29T15:57:41;2.63;;;1.70;;
14203;SDS011;7185;51.854;6.622;2023-07-29T16:00:13;3.08;;;1.60;;
14203;SDS011;7185;51.854;6.622;2023-07-29T16:02:45;3.28;;;1.67;;
14203;SDS011;7185;51.854;6.622;2023-07-29T16:05:17;4.57;;;1.85;;
14203;SDS011;7185;51.854;6.622;2023-07-29T16:07:49;2.97;;;1.67;;
14203;SDS011;7185;51.854;6.622;2023-07-29T16:10:20;3.80;;;1.77;;
14203;SDS011;7185;51.854;6.622;2023-07-29T16:12:57;3.22;;;1.67;;
14203;SDS011;7185;51.854;6.622;2023-07-29T16:15:42;4.40;;;1.85;;
14203;SDS011;7185;51.854;6.622;2023-07-29T16:18:14;4.57;;;2.00;;
14203;SDS011;7185;51.854;6.622;2023-07-29T16:20:47;2.55;;;1.80;;
14203;SDS011;7185;51.854;6.622;2023-07-29T16:23:23;6.35;;;1.80;;
14203;SDS011;7185;51.854;6.622;2023-07-29T16:25:55;2.78;;;1.73;;
14203;SDS011;7185;51.854;6.622;2023-07-29T16:28:28;3.78;;;1.80;;
14203;SDS011;7185;51.854;6.622;2023-07-29T20:03:31;5.55;;;3.72;;
14203;SDS011;7185;51.854;6.622;2023-07-29T20:10:54;5.70;;;3.78;;
14203;SDS011;7185;51.854;6.622;2023-07-29T23:23:20;10.30;;;5.05;;
14203;SDS011;7185;51.854;6.622;2023-07-29T23:25:52;11.77;;;5.63;;
14203;SDS011;7185;51.854;6.622;2023-07-29T23:28:30;10.18;;;5.10;;
14203;SDS011;7185;51.854;6.622;2023-07-29T23:31:02;12.30;;;6.30;;
14203;SDS011;7185;51.854;6.622;2023-07-29T23:33:54;15.10;;;6.28;;
14203;SDS011;7185;51.854;6.622;2023-07-29T23:36:29;12.07;;;5.50;;
14203;SDS011;7185;51.854;6.622;2023-07-29T23:39:11;17.15;;;5.68;;
14203;SDS011;7185;51.854;6.622;2023-07-29T23:41:55;14.52;;;6.30;;
14203;SDS011;7185;51.854;6.622;2023-07-29T23:44:27;12.13;;;5.22;;
14203;SDS011;7185;51.854;6.622;2023-07-29T23:46:59;12.55;;;5.20;;
14203;SDS011;7185;51.854;6.622;2023-07-29T23:49:32;12.70;;;5.53;;
14203;SDS011;7185;51.854;6.622;2023-07-29T23:52:04;11.10;;;5.40;;
14203;SDS011;7185;51.854;6.622;2023-07-29T23:54:38;14.52;;;4.95;;
14203;SDS011;7185;51.854;6.622;2023-07-29T23:57:10;11.75;;;5.18;;
14203;SDS011;7185;51.854;6.622;2023-07-29T23:59:42;19.08;;;5.80;;
